createdAt,value
2023-02-17T00:01:34.471Z,-4.69
2023-02-17T00:04:07.140Z,-4.69
2023-02-17T00:06:39.786Z,-4.67
2023-02-17T00:09:13.060Z,-4.68
2023-02-17T00:11:46.134Z,-4.67
2023-02-17T00:14:19.553Z,-4.66
2023-02-17T00:16:52.744Z,-4.64
2023-02-17T00:19:26.074Z,-4.64
2023-02-17T00:22:01.481Z,-4.63
2023-02-17T00:24:35.299Z,-4.64
2023-02-17T00:27:08.276Z,-4.67
2023-02-17T00:29:41.134Z,-4.63
2023-02-17T00:32:14.082Z,-4.62
2023-02-17T00:34:48.059Z,-4.67
2023-02-17T00:37:22.018Z,-4.72
2023-02-17T00:39:54.712Z,-4.77
2023-02-17T00:42:28.094Z,-4.80
2023-02-17T00:45:02.516Z,-4.83
2023-02-17T00:47:36.836Z,-4.82
2023-02-17T00:50:10.513Z,-4.83
2023-02-17T00:52:43.321Z,-4.79
2023-02-17T00:55:16.750Z,-4.77
2023-02-17T00:57:49.578Z,-4.76
2023-02-17T01:00:24.266Z,-4.73
2023-02-17T01:02:58.504Z,-4.70
2023-02-17T01:05:31.221Z,-4.69
2023-02-17T01:08:04.537Z,-4.66
2023-02-17T01:10:39.833Z,-4.61
2023-02-17T01:13:14.219Z,-4.55
2023-02-17T01:15:49.620Z,-4.50
2023-02-17T01:18:23.870Z,-4.46
2023-02-17T01:20:56.560Z,-4.41
2023-02-17T01:23:29.241Z,-4.39
2023-02-17T01:26:02.084Z,-4.34
2023-02-17T01:28:36.150Z,-4.32
2023-02-17T01:31:10.489Z,-4.31
2023-02-17T01:33:44.907Z,-4.30
2023-02-17T01:36:19.842Z,-4.27
2023-02-17T01:38:52.533Z,-4.27
2023-02-17T01:41:27.375Z,-4.28
2023-02-17T01:44:08.620Z,-4.29
2023-02-17T01:46:45.461Z,-4.31
2023-02-17T01:49:21.261Z,-4.31
2023-02-17T01:52:02.754Z,-4.30
2023-02-17T01:54:48.755Z,-4.31
2023-02-17T01:57:23.703Z,-4.33
2023-02-17T01:59:56.394Z,-4.28
2023-02-17T02:02:31.161Z,-4.22
2023-02-17T02:05:04.203Z,-4.10
2023-02-17T02:07:40.112Z,-3.98
2023-02-17T02:10:14.968Z,-3.84
2023-02-17T02:12:48.719Z,-3.71
2023-02-17T02:15:23.635Z,-3.60
2023-02-17T02:18:17.840Z,-3.53
2023-02-17T02:20:59.529Z,-3.47
2023-02-17T02:23:52.629Z,-3.41
2023-02-17T02:26:43.814Z,-3.38
2023-02-17T02:29:39.466Z,-3.37
2023-02-17T02:32:33.567Z,-3.29
2023-02-17T02:35:18.317Z,-3.22
2023-02-17T02:38:12.063Z,-3.17
2023-02-17T02:40:51.639Z,-3.14
2023-02-17T02:43:25.438Z,-3.13
2023-02-17T02:45:58.480Z,-3.14
2023-02-17T02:48:31.132Z,-3.17
2023-02-17T02:51:12.791Z,-3.18
2023-02-17T02:54:03.574Z,-3.18
2023-02-17T02:56:45.297Z,-3.20
2023-02-17T02:59:53.731Z,-3.23
2023-02-17T03:02:38.599Z,-3.26
2023-02-17T03:05:23.453Z,-3.30
2023-02-17T03:08:15.156Z,-3.30
2023-02-17T03:10:51.143Z,-3.30
2023-02-17T03:13:24.827Z,-3.29
2023-02-17T03:15:58.677Z,-3.34
2023-02-17T03:18:33.847Z,-3.39
2023-02-17T03:21:09.883Z,-3.44
2023-02-17T03:23:43.549Z,-3.51
2023-02-17T03:26:16.938Z,-3.54
2023-02-17T03:28:51.155Z,-3.54
2023-02-17T03:31:24.231Z,-3.55
2023-02-17T03:33:57.063Z,-3.57
2023-02-17T03:36:30.112Z,-3.58
2023-02-17T03:39:03.585Z,-3.65
2023-02-17T03:41:36.538Z,-3.66
2023-02-17T03:44:09.527Z,-3.65
2023-02-17T03:46:42.444Z,-3.64
2023-02-17T03:49:16.399Z,-3.61
2023-02-17T03:51:49.417Z,-3.60
2023-02-17T03:54:22.620Z,-3.61
2023-02-17T03:56:55.294Z,-3.64
2023-02-17T03:59:29.154Z,-3.65
2023-02-17T04:02:02.085Z,-3.66
2023-02-17T04:04:36.415Z,-3.62
2023-02-17T04:07:09.473Z,-3.61
2023-02-17T04:09:43.264Z,-3.57
2023-02-17T04:12:16.229Z,-3.55
2023-02-17T04:14:49.344Z,-3.50
2023-02-17T04:17:22.849Z,-3.46
2023-02-17T04:19:55.556Z,-3.44
2023-02-17T04:22:28.309Z,-3.37
2023-02-17T04:25:01.192Z,-3.30
2023-02-17T04:27:34.145Z,-3.23
2023-02-17T04:30:09.479Z,-3.19
2023-02-17T04:32:42.688Z,-3.20
2023-02-17T04:35:16.113Z,-3.23
2023-02-17T04:37:50.013Z,-3.28
2023-02-17T04:40:23.492Z,-3.33
2023-02-17T04:42:56.420Z,-3.34
2023-02-17T04:45:29.130Z,-3.34
2023-02-17T04:48:02.214Z,-3.35
2023-02-17T04:50:35.196Z,-3.35
2023-02-17T04:53:08.409Z,-3.32
2023-02-17T04:55:43.110Z,-3.31
2023-02-17T04:58:15.630Z,-3.30
2023-02-17T05:00:49.377Z,-3.30
2023-02-17T05:03:22.189Z,-3.31
2023-02-17T05:05:54.912Z,-3.30
2023-02-17T05:08:27.502Z,-3.31
2023-02-17T05:11:00.257Z,-3.33
2023-02-17T05:13:33.358Z,-3.27
2023-02-17T05:16:07.053Z,-3.20
2023-02-17T05:18:41.053Z,-3.13
2023-02-17T05:21:13.838Z,-3.11
2023-02-17T05:23:47.406Z,-3.07
2023-02-17T05:26:20.124Z,-3.05
2023-02-17T05:28:53.024Z,-2.99
2023-02-17T05:31:26.189Z,-2.94
2023-02-17T05:33:59.096Z,-2.87
2023-02-17T05:36:32.348Z,-2.84
2023-02-17T05:39:05.078Z,-2.83
2023-02-17T05:41:38.146Z,-2.75
2023-02-17T05:44:10.921Z,-2.70
2023-02-17T05:46:43.983Z,-2.73
2023-02-17T05:49:17.615Z,-2.75
2023-02-17T05:51:50.305Z,-2.70
2023-02-17T05:54:23.083Z,-2.61
2023-02-17T05:56:56.149Z,-2.56
2023-02-17T05:59:28.966Z,-2.55
2023-02-17T06:02:01.697Z,-2.53
2023-02-17T06:04:35.121Z,-2.49
2023-02-17T06:07:08.239Z,-2.42
2023-02-17T06:09:40.966Z,-2.35
2023-02-17T06:12:13.767Z,-2.33
2023-02-17T06:14:46.643Z,-2.33
2023-02-17T06:17:19.939Z,-2.28
2023-02-17T06:19:53.871Z,-2.24
2023-02-17T06:22:26.551Z,-2.26
2023-02-17T06:25:00.416Z,-2.23
2023-02-17T06:27:33.454Z,-2.23
2023-02-17T06:30:07.266Z,-2.20
2023-02-17T06:32:41.629Z,-2.12
2023-02-17T06:35:14.368Z,-2.06
2023-02-17T06:37:47.127Z,-2.01
2023-02-17T06:40:21.372Z,-1.97
2023-02-17T06:42:54.690Z,-1.94
2023-02-17T06:45:27.323Z,-1.97
2023-02-17T06:48:00.453Z,-1.94
2023-02-17T06:50:34.070Z,-1.89
2023-02-17T06:53:06.918Z,-1.87
2023-02-17T06:55:41.371Z,-1.85
2023-02-17T06:58:14.173Z,-1.80
2023-02-17T07:00:47.109Z,-1.78
2023-02-17T07:03:20.414Z,-1.79
2023-02-17T07:05:55.041Z,-1.74
2023-02-17T07:08:28.633Z,-1.68
2023-02-17T07:11:03.255Z,-1.61
2023-02-17T07:13:36.060Z,-1.60
2023-02-17T07:16:10.223Z,-1.56
2023-02-17T07:18:43.990Z,-1.54
2023-02-17T07:21:17.041Z,-1.48
2023-02-17T07:23:50.144Z,-1.45
2023-02-17T07:26:23.244Z,-1.41
2023-02-17T07:28:55.923Z,-1.35
2023-02-17T07:31:28.772Z,-1.26
2023-02-17T07:34:03.493Z,-1.23
2023-02-17T07:36:37.292Z,-1.22
2023-02-17T07:39:10.038Z,-1.20
2023-02-17T07:41:43.072Z,-1.19
2023-02-17T07:44:15.934Z,-1.14
2023-02-17T07:46:49.282Z,-1.08
2023-02-17T07:49:22.250Z,-1.00
2023-02-17T07:51:54.943Z,-0.93
2023-02-17T07:54:28.889Z,-0.87
2023-02-17T07:57:01.614Z,-0.87
2023-02-17T07:59:35.040Z,-0.92
2023-02-17T08:02:08.756Z,-0.94
2023-02-17T08:04:41.662Z,-0.95
2023-02-17T08:07:14.690Z,-0.89
2023-02-17T08:10:05.902Z,-0.92
2023-02-17T08:12:56.774Z,-0.96
2023-02-17T08:15:29.760Z,-0.91
2023-02-17T08:18:04.215Z,-0.81
2023-02-17T08:20:37.233Z,-0.71
2023-02-17T08:23:11.138Z,-0.61
2023-02-17T08:25:44.656Z,-0.51
2023-02-17T08:28:18.201Z,-0.41
2023-02-17T08:30:51.512Z,-0.33
2023-02-17T08:33:26.278Z,-0.26
2023-02-17T08:35:59.235Z,-0.20
2023-02-17T08:38:32.365Z,-0.16
2023-02-17T08:41:15.710Z,-0.12
2023-02-17T08:43:49.109Z,-0.11
2023-02-17T08:46:22.477Z,-0.09
2023-02-17T08:48:56.073Z,-0.09
2023-02-17T08:51:28.890Z,-0.07
2023-02-17T08:54:01.831Z,-0.04
2023-02-17T08:56:35.628Z,0.03
2023-02-17T08:59:10.184Z,0.07
2023-02-17T09:01:44.680Z,0.07
2023-02-17T09:04:17.741Z,0.06
2023-02-17T09:06:52.808Z,0.09
2023-02-17T09:09:28.191Z,0.09
2023-02-17T09:12:02.162Z,0.09
2023-02-17T09:14:35.293Z,0.16
2023-02-17T09:17:08.368Z,0.26
2023-02-17T09:19:41.343Z,0.37
2023-02-17T09:22:29.746Z,0.45
2023-02-17T09:24:50.793Z,0.53
2023-02-17T09:27:24.017Z,0.58
2023-02-17T09:29:57.386Z,0.64
2023-02-17T09:32:30.853Z,0.72
2023-02-17T09:35:06.229Z,0.75
2023-02-17T09:37:39.393Z,0.71
2023-02-17T09:40:27.456Z,0.64
2023-02-17T09:43:00.431Z,0.55
2023-02-17T09:45:37.189Z,0.41
2023-02-17T09:48:11.923Z,0.32
2023-02-17T09:50:48.028Z,0.31
2023-02-17T09:53:33.600Z,0.36
2023-02-17T09:56:12.272Z,0.38
2023-02-17T09:58:47.108Z,0.39
2023-02-17T10:01:22.436Z,0.34
2023-02-17T10:04:11.713Z,0.35
2023-02-17T10:06:47.119Z,0.38
2023-02-17T10:09:45.821Z,0.40
2023-02-17T10:12:21.626Z,0.40
2023-02-17T10:14:59.254Z,0.44
2023-02-17T10:17:36.264Z,0.46
2023-02-17T10:20:15.687Z,0.51
2023-02-17T10:22:54.006Z,0.52
2023-02-17T10:25:49.755Z,0.51
2023-02-17T10:28:42.395Z,0.53
2023-02-17T10:31:18.848Z,0.50
2023-02-17T10:34:06.141Z,0.49
2023-02-17T10:36:52.307Z,0.54
2023-02-17T10:39:39.704Z,0.56
2023-02-17T10:42:18.442Z,0.62
2023-02-17T10:44:53.393Z,0.74
2023-02-17T10:47:26.230Z,0.81
2023-02-17T10:50:00.789Z,0.85
2023-02-17T10:52:40.596Z,0.87
2023-02-17T10:55:23.752Z,0.86
2023-02-17T10:58:00.650Z,0.81
2023-02-17T11:00:34.404Z,0.83
2023-02-17T11:03:07.176Z,0.83
2023-02-17T11:05:39.749Z,0.82
2023-02-17T11:08:35.206Z,0.85
2023-02-17T11:11:16.072Z,0.79
2023-02-17T11:14:11.241Z,0.75
2023-02-17T11:16:47.388Z,0.77
2023-02-17T11:19:28.921Z,0.76
2023-02-17T11:22:03.340Z,0.77
2023-02-17T11:24:38.841Z,0.82
2023-02-17T11:27:12.834Z,0.84
2023-02-17T11:29:45.843Z,0.89
2023-02-17T11:32:20.255Z,0.91
2023-02-17T11:34:58.957Z,0.93
2023-02-17T11:37:33.114Z,0.90
2023-02-17T11:40:09.233Z,0.84
2023-02-17T11:42:42.731Z,0.75
2023-02-17T11:45:20.284Z,0.70
2023-02-17T11:48:14.304Z,0.67
2023-02-17T11:50:50.383Z,0.66
2023-02-17T11:53:45.098Z,0.65
2023-02-17T11:56:26.975Z,0.65
2023-02-17T11:59:02.910Z,0.69
2023-02-17T12:01:57.214Z,0.69
2023-02-17T12:04:34.951Z,0.70
2023-02-17T12:07:38.182Z,0.74
2023-02-17T12:10:17.198Z,0.75
2023-02-17T12:13:12.155Z,0.75
2023-02-17T12:15:48.066Z,0.68
2023-02-17T12:18:36.252Z,0.66
2023-02-17T12:21:12.325Z,0.66
2023-02-17T12:23:57.410Z,0.64
2023-02-17T12:26:46.886Z,0.59
2023-02-17T12:29:25.950Z,0.59
2023-02-17T12:32:17.289Z,0.60
2023-02-17T12:34:55.455Z,0.60
2023-02-17T12:37:33.207Z,0.55
2023-02-17T12:40:08.770Z,0.49
2023-02-17T12:42:54.478Z,0.44
2023-02-17T12:45:30.610Z,0.41
2023-02-17T12:48:06.515Z,0.32
2023-02-17T12:50:40.943Z,0.25
2023-02-17T12:53:23.430Z,0.18
2023-02-17T12:55:59.151Z,0.14
2023-02-17T12:58:32.677Z,0.12
2023-02-17T13:01:15.425Z,0.10
2023-02-17T13:03:49.377Z,0.07
2023-02-17T13:06:30.849Z,0.04
2023-02-17T13:09:22.583Z,-0.03
2023-02-17T13:11:56.059Z,-0.11
2023-02-17T13:14:42.179Z,-0.17
2023-02-17T13:17:39.283Z,-0.24
2023-02-17T13:20:16.125Z,-0.28
2023-02-17T13:22:49.692Z,-0.35
2023-02-17T13:25:31.141Z,-0.39
2023-02-17T13:28:06.306Z,-0.40
2023-02-17T13:30:41.801Z,-0.39
2023-02-17T13:33:23.518Z,-0.38
2023-02-17T13:35:56.660Z,-0.39
2023-02-17T13:38:33.595Z,-0.44
2023-02-17T13:41:07.933Z,-0.47
2023-02-17T13:43:44.407Z,-0.48
2023-02-17T13:46:24.642Z,-0.49
2023-02-17T13:49:03.225Z,-0.54
2023-02-17T13:51:36.635Z,-0.59
2023-02-17T13:54:10.344Z,-0.63
2023-02-17T13:56:43.676Z,-0.68
2023-02-17T13:59:18.515Z,-0.72
2023-02-17T14:01:51.957Z,-0.78
2023-02-17T14:04:30.644Z,-0.82
2023-02-17T14:07:05.285Z,-0.87
2023-02-17T14:09:38.436Z,-0.91
2023-02-17T14:12:15.637Z,-0.95
2023-02-17T14:14:50.192Z,-0.97
2023-02-17T14:17:32.729Z,-1.02
2023-02-17T14:20:07.423Z,-1.06
2023-02-17T14:22:40.494Z,-1.05
2023-02-17T14:25:17.447Z,-1.04
2023-02-17T14:27:51.547Z,-1.01
2023-02-17T14:30:33.788Z,-1.01
2023-02-17T14:33:10.486Z,-1.01
2023-02-17T14:35:52.094Z,-1.01
2023-02-17T14:38:29.778Z,-1.03
2023-02-17T14:41:03.342Z,-1.02
2023-02-17T14:43:37.964Z,-1.02
2023-02-17T14:46:11.002Z,-1.06
2023-02-17T14:48:44.502Z,-1.08
2023-02-17T14:51:19.455Z,-1.10
2023-02-17T14:53:52.704Z,-1.12
2023-02-17T14:56:30.731Z,-1.15
2023-02-17T14:59:04.131Z,-1.15
2023-02-17T15:01:37.068Z,-1.17
2023-02-17T15:04:10.681Z,-1.19
2023-02-17T15:06:46.513Z,-1.18
2023-02-17T15:09:22.971Z,-1.19
2023-02-17T15:11:56.758Z,-1.20
2023-02-17T15:14:29.500Z,-1.22
2023-02-17T15:17:02.113Z,-1.27
2023-02-17T15:19:35.630Z,-1.26
2023-02-17T15:22:10.684Z,-1.29
2023-02-17T15:24:44.087Z,-1.32
2023-02-17T15:27:18.212Z,-1.33
2023-02-17T15:29:50.928Z,-1.36
2023-02-17T15:32:25.196Z,-1.39
2023-02-17T15:34:58.311Z,-1.41
2023-02-17T15:37:31.553Z,-1.44
2023-02-17T15:40:04.651Z,-1.48
2023-02-17T15:42:37.453Z,-1.49
2023-02-17T15:45:13.397Z,-1.51
2023-02-17T15:47:47.629Z,-1.52
2023-02-17T15:50:23.161Z,-1.52
2023-02-17T15:52:55.796Z,-1.54
2023-02-17T15:55:29.232Z,-1.54
2023-02-17T15:58:04.864Z,-1.54
2023-02-17T16:00:37.978Z,-1.56
2023-02-17T16:03:13.863Z,-1.60
2023-02-17T16:05:48.180Z,-1.63
2023-02-17T16:08:21.551Z,-1.66
2023-02-17T16:10:55.797Z,-1.69
2023-02-17T16:13:29.153Z,-1.69
2023-02-17T16:16:02.161Z,-1.72
2023-02-17T16:18:36.313Z,-1.74
2023-02-17T16:21:12.902Z,-1.74
2023-02-17T16:23:47.122Z,-1.75
2023-02-17T16:26:34.855Z,-1.74
2023-02-17T16:29:20.713Z,-1.73
2023-02-17T16:31:55.280Z,-1.77
2023-02-17T16:34:30.508Z,-1.76
2023-02-17T16:37:05.112Z,-1.78
2023-02-17T16:39:40.665Z,-1.78
2023-02-17T16:42:17.710Z,-1.78
2023-02-17T16:44:51.187Z,-1.79
2023-02-17T16:47:24.234Z,-1.83
2023-02-17T16:49:56.934Z,-1.86
2023-02-17T16:52:30.192Z,-1.89
2023-02-17T16:55:03.731Z,-1.90
2023-02-17T16:57:36.597Z,-1.93
2023-02-17T17:00:11.872Z,-1.97
2023-02-17T17:02:45.454Z,-2.01
2023-02-17T17:05:20.244Z,-2.04
2023-02-17T17:07:53.499Z,-2.08
2023-02-17T17:10:29.009Z,-2.13
2023-02-17T17:13:02.200Z,-2.14
2023-02-17T17:15:37.804Z,-2.19
2023-02-17T17:18:11.523Z,-2.20
2023-02-17T17:20:45.526Z,-2.20
2023-02-17T17:23:20.200Z,-2.21
2023-02-17T17:25:53.483Z,-2.18
2023-02-17T17:28:26.880Z,-2.15
2023-02-17T17:31:02.294Z,-2.17
2023-02-17T17:33:34.447Z,-2.18
2023-02-17T17:36:34.430Z,-2.21
2023-02-17T17:39:09.787Z,-2.23
2023-02-17T17:41:44.262Z,-2.27
2023-02-17T17:44:17.383Z,-2.29
2023-02-17T17:46:50.327Z,-2.32
2023-02-17T17:49:23.328Z,-2.32
2023-02-17T17:51:56.163Z,-2.33
2023-02-17T17:54:29.088Z,-2.34
2023-02-17T17:57:02.044Z,-2.36
2023-02-17T17:59:34.843Z,-2.37
2023-02-17T18:02:08.832Z,-2.35
2023-02-17T18:04:41.885Z,-2.35
2023-02-17T18:07:16.311Z,-2.37
2023-02-17T18:09:50.078Z,-2.37
2023-02-17T18:12:23.493Z,-2.35
2023-02-17T18:14:59.435Z,-2.34
2023-02-17T18:17:34.389Z,-2.37
2023-02-17T18:20:10.588Z,-2.39
2023-02-17T18:22:44.533Z,-2.43
2023-02-17T18:25:18.999Z,-2.46
2023-02-17T18:27:52.151Z,-2.49
2023-02-17T18:30:26.898Z,-2.50
2023-02-17T18:32:59.862Z,-2.53
2023-02-17T18:35:38.694Z,-2.54
2023-02-17T18:38:12.004Z,-2.54
2023-02-17T18:40:45.270Z,-2.53
2023-02-17T18:43:18.845Z,-2.55
2023-02-17T18:45:53.117Z,-2.55
2023-02-17T18:48:26.364Z,-2.55
2023-02-17T18:50:59.296Z,-2.54
2023-02-17T18:53:32.197Z,-2.51
2023-02-17T18:56:07.927Z,-2.51
2023-02-17T18:58:41.892Z,-2.50
2023-02-17T19:01:24.895Z,-2.47
2023-02-17T19:03:59.784Z,-2.46
2023-02-17T19:06:34.792Z,-2.43
2023-02-17T19:09:08.084Z,-2.43
2023-02-17T19:11:40.823Z,-2.43
2023-02-17T19:14:13.724Z,-2.45
2023-02-17T19:16:46.473Z,-2.48
2023-02-17T19:19:19.415Z,-2.49
2023-02-17T19:21:53.406Z,-2.52
2023-02-17T19:24:26.232Z,-2.54
2023-02-17T19:26:59.738Z,-2.54
2023-02-17T19:29:32.705Z,-2.52
2023-02-17T19:32:06.098Z,-2.55
2023-02-17T19:34:39.701Z,-2.56
2023-02-17T19:37:12.544Z,-2.55
2023-02-17T19:39:45.858Z,-2.51
2023-02-17T19:42:20.068Z,-2.49
2023-02-17T19:44:53.048Z,-2.49
2023-02-17T19:47:26.076Z,-2.47
2023-02-17T19:50:00.001Z,-2.46
2023-02-17T19:52:32.916Z,-2.45
2023-02-17T19:55:06.366Z,-2.44
2023-02-17T19:57:39.081Z,-2.42
2023-02-17T20:00:12.896Z,-2.43
2023-02-17T20:02:46.034Z,-2.44
2023-02-17T20:05:19.804Z,-2.44
2023-02-17T20:07:52.601Z,-2.44
2023-02-17T20:10:26.763Z,-2.44
2023-02-17T20:13:00.217Z,-2.43
2023-02-17T20:15:33.311Z,-2.43
2023-02-17T20:18:06.557Z,-2.43
2023-02-17T20:20:39.390Z,-2.44
2023-02-17T20:23:12.147Z,-2.46
2023-02-17T20:25:45.666Z,-2.49
2023-02-17T20:28:18.589Z,-2.52
2023-02-17T20:30:52.324Z,-2.55
2023-02-17T20:33:26.168Z,-2.52
2023-02-17T20:35:59.418Z,-2.49
2023-02-17T20:38:32.478Z,-2.49
2023-02-17T20:48:45.637Z,-2.57
2023-02-17T20:51:18.985Z,-2.56
2023-02-17T20:53:53.430Z,-2.56
2023-02-17T20:56:28.481Z,-2.55
2023-02-17T20:59:01.705Z,-2.55
2023-02-17T21:01:35.167Z,-2.56
2023-02-17T21:04:08.810Z,-2.57
2023-02-17T21:06:43.349Z,-2.59
2023-02-17T21:09:18.440Z,-2.59
2023-02-17T21:11:52.242Z,-2.58
2023-02-17T21:14:26.257Z,-2.56
2023-02-17T21:16:59.978Z,-2.52
2023-02-17T21:19:33.435Z,-2.53
2023-02-17T21:22:06.951Z,-2.52
2023-02-17T21:24:41.588Z,-2.54
2023-02-17T21:27:16.193Z,-2.55
2023-02-17T21:29:49.405Z,-2.53
2023-02-17T21:32:22.669Z,-2.55
2023-02-17T21:34:56.051Z,-2.53
2023-02-17T21:37:29.843Z,-2.53
2023-02-17T21:40:03.297Z,-2.52
2023-02-17T21:42:56.734Z,-2.52
2023-02-17T21:45:30.273Z,-2.52
2023-02-17T21:48:03.525Z,-2.52
2023-02-17T21:50:37.534Z,-2.53
2023-02-17T21:53:10.992Z,-2.54
2023-02-17T21:55:44.041Z,-2.54
2023-02-17T21:58:17.386Z,-2.53
2023-02-17T22:00:51.136Z,-2.53
2023-02-17T22:03:24.575Z,-2.51
2023-02-17T22:05:58.619Z,-2.50
2023-02-17T22:08:31.658Z,-2.47
2023-02-17T22:11:05.320Z,-2.48
2023-02-17T22:13:38.437Z,-2.47
2023-02-17T22:16:11.762Z,-2.43
2023-02-17T22:18:45.298Z,-2.41
2023-02-17T22:21:19.338Z,-2.39
2023-02-17T22:23:53.326Z,-2.39
2023-02-17T22:26:27.560Z,-2.38
2023-02-17T22:29:00.555Z,-2.39
2023-02-17T22:31:35.002Z,-2.38
2023-02-17T22:34:10.181Z,-2.39
2023-02-17T22:36:44.372Z,-2.42
2023-02-17T22:39:17.488Z,-2.41
2023-02-17T22:41:50.583Z,-2.40
2023-02-17T22:44:23.741Z,-2.40
2023-02-17T22:46:56.816Z,-2.42
2023-02-17T22:49:29.842Z,-2.43
2023-02-17T22:52:03.396Z,-2.42
2023-02-17T22:54:38.651Z,-2.42
2023-02-17T22:57:13.268Z,-2.41
2023-02-17T22:59:46.368Z,-2.41
2023-02-17T23:02:19.707Z,-2.41
2023-02-17T23:04:53.304Z,-2.42
2023-02-17T23:07:26.932Z,-2.43
2023-02-17T23:10:00.368Z,-2.40
2023-02-17T23:12:33.908Z,-2.39
2023-02-17T23:15:07.459Z,-2.39
2023-02-17T23:17:59.402Z,-2.38
2023-02-17T23:20:32.443Z,-2.38
2023-02-17T23:23:05.658Z,-2.40
2023-02-17T23:25:48.906Z,-2.40
2023-02-17T23:28:24.532Z,-2.42
2023-02-17T23:30:58.264Z,-2.41
2023-02-17T23:33:31.831Z,-2.40
2023-02-17T23:36:08.996Z,-2.40
2023-02-17T23:38:42.191Z,-2.36
2023-02-17T23:41:15.846Z,-2.35
2023-02-17T23:43:49.003Z,-2.35
2023-02-17T23:46:22.049Z,-2.34
2023-02-17T23:48:55.351Z,-2.33
2023-02-17T23:51:28.384Z,-2.33
2023-02-17T23:54:01.810Z,-2.34
2023-02-17T23:56:36.388Z,-2.35
2023-02-17T23:59:11.395Z,-2.34
